Airport ICAO


11:05 UTC

31°C

Clear skies


An affordable passengers' Moving Map for your aircraft. Made for the iPad and the iPhone
More information here

LFMD Mandelieu


Cannes FRANCE   VFR CAVOK


METAR LFMD 191100Z AUTO 17007KT CAVOK 31/16 Q1017 NOSIG 0h05min

TAF LFMD 190800Z 1909/2009 16006KT CAVOK BECMG 1918/1920 VRB02KT 3h05min





NOTAMS

OPEN